Kathwood, South Carolina
Current Conditions -  °F | °C
As of 4:56 AM on Friday 21 Nov 2014 (Local Time) from KCAE Reporting Station
Clear Clear  
Wind Chill: 38°   Ceiling: Unl
Heat Index: 38°   Visibility: 10mi
Dew Point: 31°   Wind: 3mph
Humidity: 76%   Direction: 250°WSW
Pressure: 30.26"   Gusts: NA
Location:  33.9973°N, 81.0998°W
Report Text: KCAE 210956Z 25003KT 10SM CLR 03/M01 A3026 RMK AO2 SLP248 T00331006
Loading
Personal Weather Stations






























Interactive Weather Map New forecast layout! Learn more

10-Day Weather Forecast

Advertisements
Track Severe Weather on mobile